Time;durP1;ratioP1;P1;durP2;ratioP2;P2;SDS_P1;SDS_P2;PMS_P1;PMS_P2;Temp;Humidity;BMP_temperature;BMP_pressure;BME280_temperature;BME280_humidity;BME280_pressure;Samples;Min_cycle;Max_cycle;Signal;HPM_P1;HPM_P2
2022/08/31 00:04:19;;;;;;;;;;;;;;;17.91;52.71484;102396.2;;;;-75
2022/08/31 00:09:18;;;;;;;;;;;;;;;17.92;52.58105;102396.2;;;;-75
2022/08/31 00:14:18;;;;;;;;;;;;;;;17.93;52.58203;102392.7;;;;-74
2022/08/31 00:19:19;;;;;;;;;;;;;;;17.93;52.67285;102391.7;;;;-75
2022/08/31 00:24:18;;;;;;;;;;;;;;;17.94;52.69727;102390.9;;;;-75
2022/08/31 00:29:18;;;;;;;;;;;;;;;17.94;52.77539;102392.7;;;;-75
2022/08/31 00:32:26;;;;;;;2.7;0.7;;;;;;;;;;;;;-74
2022/08/31 00:34:21;;;;;;;;;;;;;;;17.94;52.69727;102390.2;;;;-76
2022/08/31 00:39:21;;;;;;;;;;;;;;;17.93;53.02441;102384.3;;;;-74
2022/08/31 00:44:24;;;;;;;;;;;;;;;17.9;53.13477;102377;;;;-75
2022/08/31 00:49:20;;;;;;;;;;;;;;;17.92;52.83105;102379;;;;-75
2022/08/31 00:54:20;;;;;;;;;;;;;;;17.92;52.95508;102383.3;;;;-76
2022/08/31 00:59:25;;;;;;;;;;;;;;;17.9;52.99902;102388;;;;-74
2022/08/31 01:02:28;;;;;;;3.6;0.9;;;;;;;;;;;;;-75
2022/08/31 01:04:19;;;;;;;;;;;;;;;17.91;53.18066;102392.4;;;;-75
2022/08/31 01:09:19;;;;;;;;;;;;;;;17.9;53.08984;102393.9;;;;-75
2022/08/31 01:14:21;;;;;;;;;;;;;;;17.9;53.39453;102398.3;;;;-74
2022/08/31 01:19:24;;;;;;;;;;;;;;;17.86;53.77637;102400;;;;-76
2022/08/31 01:24:20;;;;;;;;;;;;;;;17.85;53.61621;102397.4;;;;-76
2022/08/31 01:29:18;;;;;;;;;;;;;;;17.84;53.38672;102402.9;;;;-75
2022/08/31 01:32:30;;;;;;;2.2;0.9;;;;;;;;;;;;;-77
2022/08/31 01:34:20;;;;;;;;;;;;;;;17.82;53.73633;102400.1;;;;-75
2022/08/31 01:39:18;;;;;;;;;;;;;;;17.78;53.7666;102402.9;;;;-75
2022/08/31 01:44:20;;;;;;;;;;;;;;;17.77;53.74316;102401.3;;;;-75
2022/08/31 01:49:19;;;;;;;;;;;;;;;17.75;53.77441;102404.6;;;;-76
2022/08/31 01:54:19;;;;;;;;;;;;;;;17.75;53.70605;102406.1;;;;-74
2022/08/31 01:59:22;;;;;;;;;;;;;;;17.73;54.04297;102413.3;;;;-76
2022/08/31 02:02:35;;;;;;;2.5;0.8;;;;;;;;;;;;;-75
2022/08/31 02:04:18;;;;;;;;;;;;;;;17.71;53.76855;102408.8;;;;-74
2022/08/31 02:09:19;;;;;;;;;;;;;;;17.7;53.89355;102402.3;;;;-76
2022/08/31 02:14:18;;;;;;;;;;;;;;;17.69;53.74414;102407.6;;;;-75
2022/08/31 02:19:18;;;;;;;;;;;;;;;17.66;53.71777;102406.1;;;;-75
2022/08/31 02:24:21;;;;;;;;;;;;;;;17.65;53.81836;102406.2;;;;-76
2022/08/31 02:29:18;;;;;;;;;;;;;;;17.59;53.84375;102400.1;;;;-75
2022/08/31 02:32:34;;;;;;;2.9;0.8;;;;;;;;;;;;;-76
2022/08/31 02:34:19;;;;;;;;;;;;;;;17.55;53.63574;102399.4;;;;-75
2022/08/31 02:39:18;;;;;;;;;;;;;;;17.5;53.57422;102399;;;;-76
2022/08/31 02:44:18;;;;;;;;;;;;;;;17.46;53.6709;102393.5;;;;-75
2022/08/31 02:49:20;;;;;;;;;;;;;;;17.41;53.7334;102391.1;;;;-75
2022/08/31 02:54:19;;;;;;;;;;;;;;;17.38;53.60449;102391.2;;;;-77
2022/08/31 02:59:19;;;;;;;;;;;;;;;17.33;53.53027;102390.7;;;;-74
2022/08/31 03:02:36;;;;;;;2.9;0.7;;;;;;;;;;;;;-76
2022/08/31 03:04:18;;;;;;;;;;;;;;;17.3;53.51465;102395.2;;;;-75
2022/08/31 03:09:18;;;;;;;;;;;;;;;17.25;53.45313;102398.6;;;;-75
2022/08/31 03:14:18;;;;;;;;;;;;;;;17.19;53.53613;102402.7;;;;-75
2022/08/31 03:19:18;;;;;;;;;;;;;;;17.14;53.39355;102402.4;;;;-76
2022/08/31 03:24:20;;;;;;;;;;;;;;;17.06;53.47461;102398;;;;-75
2022/08/31 03:29:18;;;;;;;;;;;;;;;17.02;53.53711;102398.1;;;;-75
2022/08/31 03:32:38;;;;;;;1.3;0.6;;;;;;;;;;;;;-76
2022/08/31 03:34:18;;;;;;;;;;;;;;;16.94;53.43848;102400.2;;;;-75
2022/08/31 03:39:18;;;;;;;;;;;;;;;16.93;53.28906;102408;;;;-76
2022/08/31 03:44:22;;;;;;;;;;;;;;;16.88;53.03418;102410.6;;;;-75
2022/08/31 03:49:19;;;;;;;;;;;;;;;16.79;52.91016;102405;;;;-75
2022/08/31 03:54:18;;;;;;;;;;;;;;;16.73;52.95996;102409.2;;;;-75
2022/08/31 03:59:19;;;;;;;;;;;;;;;16.7;52.69629;102406.6;;;;-75
2022/08/31 04:02:43;;;;;;;1.2;0.5;;;;;;;;;;;;;-74
2022/08/31 04:04:18;;;;;;;;;;;;;;;16.64;52.66699;102423.4;;;;-76
2022/08/31 04:09:18;;;;;;;;;;;;;;;16.58;52.4668;102426.8;;;;-75
2022/08/31 04:14:22;;;;;;;;;;;;;;;16.52;52.37012;102428.4;;;;-75
2022/08/31 04:19:19;;;;;;;;;;;;;;;16.44;52.4043;102426.8;;;;-75
2022/08/31 04:24:18;;;;;;;;;;;;;;;16.42;52.35645;102428;;;;-75
2022/08/31 04:29:18;;;;;;;;;;;;;;;16.39;52.29688;102434.5;;;;-75
2022/08/31 04:32:43;;;;;;;1.2;0.5;;;;;;;;;;;;;-72
2022/08/31 04:34:18;;;;;;;;;;;;;;;16.35;52.12305;102430.2;;;;-70
2022/08/31 04:39:22;;;;;;;;;;;;;;;16.3;52.16211;102434.8;;;;-70
2022/08/31 04:44:18;;;;;;;;;;;;;;;16.28;52.18262;102440.1;;;;-70
2022/08/31 04:49:21;;;;;;;;;;;;;;;16.22;52.15234;102431;;;;-70
2022/08/31 04:54:18;;;;;;;;;;;;;;;16.18;52.09277;102435.5;;;;-70
2022/08/31 04:59:24;;;;;;;;;;;;;;;16.14;52.2002;102441.1;;;;-69
2022/08/31 05:02:44;;;;;;;1.7;0.5;;;;;;;;;;;;;-70
2022/08/31 05:04:22;;;;;;;;;;;;;;;16.11;52.20703;102442.1;;;;-70
2022/08/31 05:09:19;;;;;;;;;;;;;;;16.09;52.12598;102439.9;;;;-73
2022/08/31 05:14:21;;;;;;;;;;;;;;;16.08;52.14844;102448.7;;;;-74
2022/08/31 05:19:20;;;;;;;;;;;;;;;16.06;52.23535;102460.3;;;;-75
2022/08/31 05:24:20;;;;;;;;;;;;;;;16.05;52.19043;102459.5;;;;-74
2022/08/31 05:29:29;;;;;;;;;;;;;;;16.05;52.16699;102459.1;;;;-75
2022/08/31 05:32:46;;;;;;;0.9;0.4;;;;;;;;;;;;;-75
2022/08/31 05:34:19;;;;;;;;;;;;;;;16.05;52.14355;102468.6;;;;-76
2022/08/31 05:39:18;;;;;;;;;;;;;;;16.05;52.38281;102470;;;;-74
2022/08/31 05:44:19;;;;;;;;;;;;;;;16.07;52.54297;102475;;;;-74
2022/08/31 05:49:20;;;;;;;;;;;;;;;16.1;52.64648;102470.9;;;;-76
2022/08/31 05:54:20;;;;;;;;;;;;;;;16.17;53.12988;102474.2;;;;-76
2022/08/31 05:59:18;;;;;;;;;;;;;;;16.41;52.93359;102473.3;;;;-75
2022/08/31 06:02:51;;;;;;;0.8;0.4;;;;;;;;;;;;;-76
2022/08/31 06:04:18;;;;;;;;;;;;;;;16.85;52.20508;102476.5;;;;-75
2022/08/31 06:09:18;;;;;;;;;;;;;;;17.29;51.30469;102470.6;;;;-75
2022/08/31 06:14:20;;;;;;;;;;;;;;;17.69;50.48926;102470.6;;;;-76
2022/08/31 06:19:18;;;;;;;;;;;;;;;18.03;49.86914;102471.3;;;;-77
2022/08/31 06:24:18;;;;;;;;;;;;;;;18.38;49.2832;102468.8;;;;-75
2022/08/31 06:29:19;;;;;;;;;;;;;;;18.73;48.91211;102476;;;;-75
2022/08/31 06:32:52;;;;;;;1.1;0.3;;;;;;;;;;;;;-76
2022/08/31 06:34:19;;;;;;;;;;;;;;;19.01;48.46484;102477.3;;;;-75
2022/08/31 06:39:19;;;;;;;;;;;;;;;19.3;47.89258;102482.1;;;;-76
2022/08/31 06:44:19;;;;;;;;;;;;;;;19.53;47.64355;102486.5;;;;-76
2022/08/31 06:49:19;;;;;;;;;;;;;;;19.7;47.47949;102487.6;;;;-76
2022/08/31 06:54:19;;;;;;;;;;;;;;;19.91;47.19238;102491.1;;;;-76
2022/08/31 06:59:19;;;;;;;;;;;;;;;20.18;46.81152;102498.5;;;;-75
2022/08/31 07:02:52;;;;;;;1.1;0.4;;;;;;;;;;;;;-76
2022/08/31 07:04:18;;;;;;;;;;;;;;;20.38;46.52344;102492;;;;-75
2022/08/31 07:09:19;;;;;;;;;;;;;;;20.6;46.2832;102502;;;;-74
2022/08/31 07:14:20;;;;;;;;;;;;;;;20.76;46.21973;102505.9;;;;-75
2022/08/31 07:19:19;;;;;;;;;;;;;;;20.97;45.85352;102506.6;;;;-75
2022/08/31 07:24:21;;;;;;;;;;;;;;;21.2;45.39551;102512.6;;;;-77
2022/08/31 07:29:21;;;;;;;;;;;;;;;21.37;45.39063;102507.8;;;;-76
2022/08/31 07:32:55;;;;;;;1.1;0.5;;;;;;;;;;;;;-75
2022/08/31 07:34:20;;;;;;;;;;;;;;;21.6;45.14941;102514.3;;;;-74
2022/08/31 07:44:19;;;;;;;;;;;;;;;22.14;44.70996;102509.7;;;;-75
2022/08/31 07:49:21;;;;;;;;;;;;;;;22.41;44.33594;102500.4;;;;-75
2022/08/31 07:54:19;;;;;;;;;;;;;;;22.65;44.2334;102510.4;;;;-75
2022/08/31 07:59:19;;;;;;;;;;;;;;;22.94;43.74316;102509.1;;;;-76
2022/08/31 08:03:06;;;;;;;1.6;0.5;;;;;;;;;;;;;-75
2022/08/31 08:04:24;;;;;;;;;;;;;;;23.14;43.49805;102515.2;;;;-75
2022/08/31 08:09:20;;;;;;;;;;;;;;;23.36;43.08203;102519.3;;;;-76
2022/08/31 08:14:19;;;;;;;;;;;;;;;23.62;42.6582;102521.5;;;;-76
2022/08/31 08:19:20;;;;;;;;;;;;;;;23.81;42.22656;102523.8;;;;-75
2022/08/31 08:24:18;;;;;;;;;;;;;;;23.97;42.11523;102523.1;;;;-76
2022/08/31 08:29:19;;;;;;;;;;;;;;;24.17;41.71777;102526.8;;;;-75
2022/08/31 08:33:03;;;;;;;2.5;0.6;;;;;;;;;;;;;-76
2022/08/31 08:34:18;;;;;;;;;;;;;;;24.45;41.32715;102525.5;;;;-77
2022/08/31 08:39:19;;;;;;;;;;;;;;;24.63;41.00879;102522.9;;;;-77
2022/08/31 08:44:22;;;;;;;;;;;;;;;24.82;40.7373;102531.2;;;;-76
2022/08/31 08:49:34;;;;;;;;;;;;;;;24.95;40.61035;102533.1;;;;-76
2022/08/31 08:54:22;;;;;;;;;;;;;;;25.16;40.49023;102524.4;;;;-77
2022/08/31 08:59:19;;;;;;;;;;;;;;;25.4;40.02539;102525.6;;;;-77
2022/08/31 09:03:07;;;;;;;1.1;0.5;;;;;;;;;;;;;-77
2022/08/31 09:04:22;;;;;;;;;;;;;;;25.62;39.80176;102523.6;;;;-76
2022/08/31 09:09:40;;;;;;;;;;;;;;;25.87;39.38281;102527.3;;;;-76
2022/08/31 09:14:31;;;;;;;;;;;;;;;26.03;38.93262;102521.6;;;;-76
2022/08/31 09:19:20;;;;;;;;;;;;;;;26.12;38.7793;102510.6;;;;-76
2022/08/31 09:24:19;;;;;;;;;;;;;;;26.23;38.54395;102524.8;;;;-76
2022/08/31 09:29:23;;;;;;;;;;;;;;;26.43;38.65332;102515.9;;;;-76
2022/08/31 09:33:09;;;;;;;5.6;0.6;;;;;;;;;;;;;-78
2022/08/31 09:34:30;;;;;;;;;;;;;;;26.68;38.25684;102515.7;;;;-76
2022/08/31 09:39:23;;;;;;;;;;;;;;;26.89;37.77539;102522.8;;;;-77
2022/08/31 09:44:35;;;;;;;;;;;;;;;27.03;37.49609;102523.7;;;;-76
2022/08/31 09:49:23;;;;;;;;;;;;;;;27.18;36.96094;102518.5;;;;-77
2022/08/31 09:59:28;;;;;;;;;;;;;;;27.55;35.84961;102505.8;;;;-75
2022/08/31 10:03:20;;;;;;;1.6;0.6;;;;;;;;;;;;;-75
2022/08/31 10:04:31;;;;;;;;;;;;;;;27.82;35.2998;102507.1;;;;-78
2022/08/31 10:09:28;;;;;;;;;;;;;;;28.03;34.20898;102504.6;;;;-76
2022/08/31 10:14:23;;;;;;;;;;;;;;;28.24;34.09668;102501.2;;;;-77
2022/08/31 10:19:27;;;;;;;;;;;;;;;28.48;33.78613;102493.1;;;;-76
2022/08/31 10:24:27;;;;;;;;;;;;;;;28.7;33.44043;102494.3;;;;-74
2022/08/31 10:29:23;;;;;;;;;;;;;;;28.97;32.86426;102507;;;;-77
2022/08/31 10:33:19;;;;;;;4.2;0.5;;;;;;;;;;;;;-75
2022/08/31 10:39:28;;;;;;;;;;;;;;;29.33;32.14063;102494;;;;-75
2022/08/31 10:44:22;;;;;;;;;;;;;;;29.48;31.68359;102492.9;;;;-78
2022/08/31 10:49:21;;;;;;;;;;;;;;;29.6;31.01172;102490.1;;;;-79
2022/08/31 10:54:27;;;;;;;;;;;;;;;29.64;31.43652;102492;;;;-78
2022/08/31 10:59:28;;;;;;;;;;;;;;;29.76;31.24512;102490.5;;;;-78
2022/08/31 11:03:29;;;;;;;1.9;0.5;;;;;;;;;;;;;-76
2022/08/31 11:09:22;;;;;;;;;;;;;;;29.9;30.99609;102483.9;;;;-78
2022/08/31 11:14:35;;;;;;;;;;;;;;;30.02;31.28711;102482.3;;;;-78
2022/08/31 11:19:31;;;;;;;;;;;;;;;30.16;30.8623;102480.4;;;;-77
2022/08/31 11:24:32;;;;;;;;;;;;;;;30.28;30.7998;102476.6;;;;-78
2022/08/31 11:29:27;;;;;;;;;;;;;;;30.39;30.74805;102481.1;;;;-80
2022/08/31 11:33:31;;;;;;;4.9;0.5;;;;;;;;;;;;;-77
2022/08/31 11:34:29;;;;;;;;;;;;;;;30.48;30.625;102476;;;;-76
2022/08/31 11:39:40;;;;;;;;;;;;;;;30.51;30.60352;102481.7;;;;-77
2022/08/31 11:44:38;;;;;;;;;;;;;;;30.52;30.08789;102464;;;;-77
2022/08/31 11:49:33;;;;;;;;;;;;;;;30.47;30.0957;102464.6;;;;-76
2022/08/31 11:54:34;;;;;;;;;;;;;;;30.5;29.93359;102465.9;;;;-77
2022/08/31 11:59:25;;;;;;;;;;;;;;;30.51;29.75879;102457;;;;-75
2022/08/31 12:03:44;;;;;;;2.4;0.4;;;;;;;;;;;;;-77
2022/08/31 12:04:45;;;;;;;;;;;;;;;30.5;29.80371;102452;;;;-76
2022/08/31 12:09:32;;;;;;;;;;;;;;;30.51;29.94629;102449;;;;-76
2022/08/31 12:14:21;;;;;;;;;;;;;;;30.66;30.62598;102445.6;;;;-76
2022/08/31 12:24:26;;;;;;;;;;;;;;;30.83;29.60254;102443.6;;;;-76
2022/08/31 12:29:25;;;;;;;;;;;;;;;30.88;28.91211;102434.9;;;;-77
2022/08/31 12:33:35;;;;;;;1.2;0.4;;;;;;;;;;;;;-76
2022/08/31 12:34:23;;;;;;;;;;;;;;;30.81;29.20215;102434.3;;;;-75
2022/08/31 12:39:25;;;;;;;;;;;;;;;30.92;29.38574;102432.9;;;;-77
2022/08/31 12:44:22;;;;;;;;;;;;;;;30.98;29.20117;102427.5;;;;-78
2022/08/31 12:49:29;;;;;;;;;;;;;;;31.03;29.2627;102416.2;;;;-75
2022/08/31 12:54:29;;;;;;;;;;;;;;;31.05;29.00488;102413.7;;;;-76
2022/08/31 12:59:24;;;;;;;;;;;;;;;31.19;29.00195;102409.7;;;;-78
2022/08/31 13:03:45;;;;;;;1.1;0.3;;;;;;;;;;;;;-77
2022/08/31 13:04:23;;;;;;;;;;;;;;;31.2;29.21484;102412.1;;;;-76
2022/08/31 13:09:29;;;;;;;;;;;;;;;31.31;29.05664;102408.1;;;;-75
2022/08/31 13:14:23;;;;;;;;;;;;;;;31.51;28.42188;102406.8;;;;-74
2022/08/31 13:19:25;;;;;;;;;;;;;;;31.44;27.74609;102409.9;;;;-76
2022/08/31 13:24:18;;;;;;;;;;;;;;;31.29;28.18457;102386.8;;;;-76
2022/08/31 13:29:19;;;;;;;;;;;;;;;31.37;28.2959;102387.3;;;;-76
2022/08/31 13:33:46;;;;;;;1.7;0.5;;;;;;;;;;;;;-74
2022/08/31 13:34:22;;;;;;;;;;;;;;;31.4;27.5791;102380.1;;;;-76
2022/08/31 13:39:24;;;;;;;;;;;;;;;31.37;27.4707;102377.2;;;;-77
2022/08/31 13:44:26;;;;;;;;;;;;;;;31.33;27.79883;102371.6;;;;-76
2022/08/31 13:49:34;;;;;;;;;;;;;;;31.32;27.62109;102361.1;;;;-77
2022/08/31 13:54:29;;;;;;;;;;;;;;;31.21;28.0625;102365.4;;;;-76
2022/08/31 13:59:36;;;;;;;;;;;;;;;31.24;27.38086;102374.3;;;;-76
2022/08/31 14:03:59;;;;;;;0.9;0.4;;;;;;;;;;;;;-77
2022/08/31 14:04:42;;;;;;;;;;;;;;;31.21;27.73242;102356;;;;-78
2022/08/31 14:09:20;;;;;;;;;;;;;;;31.16;27.74121;102353.4;;;;-76
2022/08/31 14:14:25;;;;;;;;;;;;;;;31.14;27.56348;102358.3;;;;-75
2022/08/31 14:19:31;;;;;;;;;;;;;;;31.15;27.54004;102356.8;;;;-76
2022/08/31 14:24:19;;;;;;;;;;;;;;;31.08;27.21875;102353.2;;;;-77
2022/08/31 14:29:19;;;;;;;;;;;;;;;30.95;27.23438;102343.4;;;;-74
2022/08/31 14:33:55;;;;;;;1.2;0.4;;;;;;;;;;;;;-75
2022/08/31 14:34:22;;;;;;;;;;;;;;;30.94;27.66895;102346;;;;-77
2022/08/31 14:39:18;;;;;;;;;;;;;;;30.91;27.37305;102350.7;;;;-76
2022/08/31 14:44:21;;;;;;;;;;;;;;;30.88;27.22949;102341.6;;;;-76
2022/08/31 14:49:18;;;;;;;;;;;;;;;30.87;27.59375;102340;;;;-79
2022/08/31 14:54:19;;;;;;;;;;;;;;;30.92;27.41992;102338.3;;;;-78
2022/08/31 14:59:19;;;;;;;;;;;;;;;30.9;27.38379;102334.8;;;;-76
2022/08/31 15:04:02;;;;;;;1.7;0.5;;;;;;;;;;;;;-76
2022/08/31 15:04:21;;;;;;;;;;;;;;;30.86;27.73438;102326.9;;;;-77
2022/08/31 15:09:20;;;;;;;;;;;;;;;30.77;27.44629;102336.5;;;;-75
2022/08/31 15:14:21;;;;;;;;;;;;;;;30.69;27.74707;102331.1;;;;-78
2022/08/31 15:19:21;;;;;;;;;;;;;;;30.7;27.9834;102323.6;;;;-75
2022/08/31 15:24:23;;;;;;;;;;;;;;;30.69;27.75879;102321.7;;;;-76
2022/08/31 15:29:18;;;;;;;;;;;;;;;30.73;27.87988;102321.3;;;;-76
2022/08/31 15:34:03;;;;;;;2.1;0.4;;;;;;;;;;;;;-79
2022/08/31 15:34:23;;;;;;;;;;;;;;;30.64;28.12109;102320.3;;;;-77
2022/08/31 15:39:20;;;;;;;;;;;;;;;30.68;28.04102;102324.5;;;;-76
2022/08/31 15:44:18;;;;;;;;;;;;;;;30.63;27.55664;102324.2;;;;-76
2022/08/31 15:49:18;;;;;;;;;;;;;;;30.5;27.77148;102316;;;;-77
2022/08/31 15:54:18;;;;;;;;;;;;;;;30.41;28.03613;102309.4;;;;-76
2022/08/31 15:59:21;;;;;;;;;;;;;;;30.28;28.09863;102304.9;;;;-76
2022/08/31 16:04:14;;;;;;;1.3;0.5;;;;;;;;;;;;;-76
2022/08/31 16:04:27;;;;;;;;;;;;;;;30.1;28.08789;102302.2;;;;-75
2022/08/31 16:09:19;;;;;;;;;;;;;;;29.97;28.31445;102303.5;;;;-75
2022/08/31 16:14:19;;;;;;;;;;;;;;;29.85;28.48242;102292.7;;;;-76
2022/08/31 16:19:19;;;;;;;;;;;;;;;29.74;28.37012;102290;;;;-75
2022/08/31 16:24:20;;;;;;;;;;;;;;;29.59;28.71289;102286.1;;;;-76
2022/08/31 16:29:19;;;;;;;;;;;;;;;29.46;28.72852;102295.6;;;;-75
2022/08/31 16:34:12;;;;;;;4;0.6;;;;;;;;;;;;;-77
2022/08/31 16:34:27;;;;;;;;;;;;;;;29.27;28.80957;102285.7;;;;-75
2022/08/31 16:39:18;;;;;;;;;;;;;;;29.11;28.90527;102294.6;;;;-77
2022/08/31 16:44:19;;;;;;;;;;;;;;;28.92;29.06836;102284.6;;;;-75
2022/08/31 16:49:40;;;;;;;;;;;;;;;28.71;29.19531;102278;;;;-76
2022/08/31 16:54:18;;;;;;;;;;;;;;;28.54;29.48926;102283.8;;;;-77
2022/08/31 16:59:18;;;;;;;;;;;;;;;28.32;29.60254;102285.1;;;;-75
2022/08/31 17:04:18;;;;;;;2.8;0.5;;;;;;;;;;;;;-75
2022/08/31 17:04:38;;;;;;;;;;;;;;;28.09;30.16016;102283.7;;;;-76
2022/08/31 17:09:21;;;;;;;;;;;;;;;27.92;30.61621;102288.7;;;;-76
2022/08/31 17:14:19;;;;;;;;;;;;;;;27.72;31;102290.5;;;;-78
2022/08/31 17:19:19;;;;;;;;;;;;;;;27.43;31.53906;102293.5;;;;-78
2022/08/31 17:24:20;;;;;;;;;;;;;;;27.18;31.76758;102297.7;;;;-78
2022/08/31 17:29:18;;;;;;;;;;;;;;;26.92;32.23828;102304;;;;-78
2022/08/31 17:34:20;;;;;;;;;;;;;;;26.67;32.63965;102302.6;;;;-79
2022/08/31 17:34:33;;;;;;;1.2;0.6;;;;;;;;;;;;;-79
2022/08/31 17:39:22;;;;;;;;;;;;;;;26.4;33.1084;102305;;;;-78
2022/08/31 17:44:19;;;;;;;;;;;;;;;26.08;33.53809;102300.4;;;;-77
2022/08/31 17:49:21;;;;;;;;;;;;;;;25.78;33.91016;102307.2;;;;-78
2022/08/31 17:54:21;;;;;;;;;;;;;;;25.48;34.25879;102320;;;;-77
2022/08/31 17:59:20;;;;;;;;;;;;;;;24.89;36.10254;102312.7;;;;-77
2022/08/31 18:04:18;;;;;;;;;;;;;;;24.66;35.86426;102319.9;;;;-79
2022/08/31 18:04:28;;;;;;;3.2;0.6;;;;;;;;;;;;;-79
2022/08/31 18:09:21;;;;;;;;;;;;;;;24.43;36.00781;102315.8;;;;-75
2022/08/31 18:14:18;;;;;;;;;;;;;;;24.1;36.80176;102320.3;;;;-75
2022/08/31 18:19:24;;;;;;;;;;;;;;;23.81;37.02051;102321.6;;;;-77
2022/08/31 18:24:18;;;;;;;;;;;;;;;23.5;38.00977;102323.9;;;;-76
2022/08/31 18:29:18;;;;;;;;;;;;;;;23.23;38.35645;102333.3;;;;-75
2022/08/31 18:34:20;;;;;;;;;;;;;;;22.97;39.06055;102340.7;;;;-76
2022/08/31 18:34:30;;;;;;;1.6;0.7;;;;;;;;;;;;;-76
2022/08/31 18:39:24;;;;;;;;;;;;;;;22.71;39.34863;102350.1;;;;-75
2022/08/31 18:49:18;;;;;;;;;;;;;;;22.24;40.2041;102352.9;;;;-76
2022/08/31 18:54:23;;;;;;;;;;;;;;;22.02;40.65527;102360;;;;-76
2022/08/31 18:59:18;;;;;;;;;;;;;;;21.8;41.16309;102362.9;;;;-75
2022/08/31 19:04:18;;;;;;;;;;;;;;;21.59;41.69531;102366.7;;;;-75
2022/08/31 19:04:31;;;;;;;1.4;0.8;;;;;;;;;;;;;-75
2022/08/31 19:09:22;;;;;;;;;;;;;;;21.39;42.26172;102369.6;;;;-76
2022/08/31 19:14:18;;;;;;;;;;;;;;;21.21;42.37109;102371.1;;;;-75
2022/08/31 19:19:21;;;;;;;;;;;;;;;21.01;43.08594;102375.3;;;;-75
2022/08/31 19:24:19;;;;;;;;;;;;;;;20.85;43.48145;102377.5;;;;-77
2022/08/31 19:29:22;;;;;;;;;;;;;;;20.69;44.06152;102386.4;;;;-75
2022/08/31 19:34:19;;;;;;;;;;;;;;;20.54;44.37891;102382.3;;;;-76
2022/08/31 19:34:35;;;;;;;2.2;0.7;;;;;;;;;;;;;-75
2022/08/31 19:39:21;;;;;;;;;;;;;;;20.41;44.53711;102387.3;;;;-75
2022/08/31 19:44:18;;;;;;;;;;;;;;;20.26;45.01465;102386.5;;;;-77
2022/08/31 19:49:21;;;;;;;;;;;;;;;20.14;45.67676;102393.5;;;;-76
2022/08/31 19:54:18;;;;;;;;;;;;;;;20.03;46.00684;102389.6;;;;-74
2022/08/31 19:59:22;;;;;;;;;;;;;;;19.94;46.34082;102392.2;;;;-75
2022/08/31 20:04:18;;;;;;;;;;;;;;;19.84;46.99219;102396.7;;;;-73
2022/08/31 20:04:37;;;;;;;1.4;0.8;;;;;;;;;;;;;-74
2022/08/31 20:09:20;;;;;;;;;;;;;;;19.77;47.41895;102400.7;;;;-75
2022/08/31 20:14:20;;;;;;;;;;;;;;;19.65;47.56543;102407.7;;;;-76
2022/08/31 20:19:23;;;;;;;;;;;;;;;19.55;48.82129;102405.7;;;;-74
2022/08/31 20:24:18;;;;;;;;;;;;;;;19.47;48.90332;102404.3;;;;-75
2022/08/31 20:29:18;;;;;;;;;;;;;;;19.38;48.92578;102409.3;;;;-75
2022/08/31 20:34:20;;;;;;;;;;;;;;;19.31;49.16992;102411.2;;;;-75
2022/08/31 20:34:39;;;;;;;2.3;0.9;;;;;;;;;;;;;-75
2022/08/31 20:39:19;;;;;;;;;;;;;;;19.21;49.78516;102400.3;;;;-75
2022/08/31 20:44:19;;;;;;;;;;;;;;;19.13;49.67383;102409.9;;;;-74
2022/08/31 20:49:27;;;;;;;;;;;;;;;19.06;49.92871;102412.5;;;;-76
2022/08/31 20:54:18;;;;;;;;;;;;;;;19.01;50.37598;102411.5;;;;-74
2022/08/31 20:59:21;;;;;;;;;;;;;;;18.93;50.3457;102411.4;;;;-75
2022/08/31 21:04:18;;;;;;;;;;;;;;;18.88;51.03418;102411.7;;;;-76
2022/08/31 21:04:44;;;;;;;2.1;1.1;;;;;;;;;;;;;-75
2022/08/31 21:09:18;;;;;;;;;;;;;;;18.81;50.87695;102406.9;;;;-74
2022/08/31 21:14:19;;;;;;;;;;;;;;;18.76;51.31641;102404.8;;;;-75
2022/08/31 21:19:21;;;;;;;;;;;;;;;18.71;51.17285;102406.9;;;;-76
2022/08/31 21:24:19;;;;;;;;;;;;;;;18.62;51.60742;102406.6;;;;-74
2022/08/31 21:29:19;;;;;;;;;;;;;;;18.56;51.79199;102408.8;;;;-75
2022/08/31 21:34:23;;;;;;;;;;;;;;;18.48;51.85156;102409.1;;;;-76
2022/08/31 21:34:44;;;;;;;2.3;1;;;;;;;;;;;;;-74
2022/08/31 21:39:19;;;;;;;;;;;;;;;18.44;51.74512;102409.8;;;;-74
2022/08/31 21:44:19;;;;;;;;;;;;;;;18.4;51.83105;102407.7;;;;-76
2022/08/31 21:49:20;;;;;;;;;;;;;;;18.31;51.74219;102406.4;;;;-75
2022/08/31 21:54:19;;;;;;;;;;;;;;;18.28;51.69238;102404.3;;;;-75
2022/08/31 21:59:19;;;;;;;;;;;;;;;18.21;52.10547;102403.2;;;;-75
2022/08/31 22:04:19;;;;;;;;;;;;;;;18.17;52.40625;102401.5;;;;-75
2022/08/31 22:04:46;;;;;;;3.1;1;;;;;;;;;;;;;-76
2022/08/31 22:09:21;;;;;;;;;;;;;;;18.14;52.1416;102404.6;;;;-75
2022/08/31 22:14:19;;;;;;;;;;;;;;;18.11;52.3418;102400;;;;-75
2022/08/31 22:19:21;;;;;;;;;;;;;;;18.04;52.65137;102402.1;;;;-75
2022/08/31 22:24:19;;;;;;;;;;;;;;;18.01;52.71582;102403.3;;;;-75
2022/08/31 22:29:21;;;;;;;;;;;;;;;17.95;53.36719;102400.3;;;;-74
2022/08/31 22:34:19;;;;;;;;;;;;;;;17.92;53.10254;102403.3;;;;-76
2022/08/31 22:34:48;;;;;;;2.9;0.8;;;;;;;;;;;;;-75
2022/08/31 22:39:18;;;;;;;;;;;;;;;17.88;52.9502;102407;;;;-75
2022/08/31 22:44:19;;;;;;;;;;;;;;;17.85;53.45703;102408.5;;;;-75
2022/08/31 22:49:18;;;;;;;;;;;;;;;17.82;53.18164;102405.8;;;;-75
2022/08/31 22:54:19;;;;;;;;;;;;;;;17.8;53.14453;102399.2;;;;-76
2022/08/31 22:59:23;;;;;;;;;;;;;;;17.77;53.11914;102395.2;;;;-75
2022/08/31 23:04:21;;;;;;;;;;;;;;;17.7;53.42773;102391.4;;;;-74
2022/08/31 23:04:50;;;;;;;2.4;1;;;;;;;;;;;;;-75
2022/08/31 23:09:19;;;;;;;;;;;;;;;17.67;53.62695;102385.5;;;;-74
2022/08/31 23:14:19;;;;;;;;;;;;;;;17.64;53.7832;102381.3;;;;-75
2022/08/31 23:19:20;;;;;;;;;;;;;;;17.61;53.39355;102379.4;;;;-75
2022/08/31 23:24:19;;;;;;;;;;;;;;;17.57;53.75195;102379.4;;;;-75
2022/08/31 23:29:18;;;;;;;;;;;;;;;17.51;53.62012;102375.8;;;;-76
2022/08/31 23:34:21;;;;;;;;;;;;;;;17.48;53.95605;102372.9;;;;-73
2022/08/31 23:34:52;;;;;;;2.1;0.9;;;;;;;;;;;;;-75
2022/08/31 23:39:18;;;;;;;;;;;;;;;17.45;53.92871;102368.1;;;;-75
2022/08/31 23:44:18;;;;;;;;;;;;;;;17.41;53.94727;102363.5;;;;-74
2022/08/31 23:49:22;;;;;;;;;;;;;;;17.37;53.76172;102355.1;;;;-70
2022/08/31 23:54:19;;;;;;;;;;;;;;;17.32;53.97168;102354.8;;;;-70
2022/08/31 23:59:19;;;;;;;;;;;;;;;17.28;54.02246;102349.3;;;;-70
